Time;durP1;ratioP1;P1;durP2;ratioP2;P2;SDS_P1;SDS_P2;PMS_P1;PMS_P2;Temp;Humidity;BMP_temperature;BMP_pressure;BME280_temperature;BME280_humidity;BME280_pressure;Samples;Min_cycle;Max_cycle;Signal;HPM_P1;HPM_P2
2022/05/15 00:01:38;;;;;;;;;;;22.10;45.20;;;;;;5074682;28;19914;-61
2022/05/15 00:04:03;;;;;;;;;;;22.10;45.40;;;;;;5074460;28;19909;-61
2022/05/15 00:06:29;;;;;;;;;;;22.10;45.30;;;;;;5074450;28;19912;-62
2022/05/15 00:08:54;;;;;;;;;;;22.10;45.30;;;;;;5073803;28;19927;-61
2022/05/15 00:11:20;;;;;;;;;;;22.10;45.30;;;;;;5073113;28;19915;-62
2022/05/15 00:13:46;;;;;;;;;;;22.10;45.40;;;;;;5074263;28;19908;-61
2022/05/15 00:16:11;;;;;;;;;;;22.10;45.40;;;;;;5074360;28;19939;-61
2022/05/15 00:18:38;;;;;;;;;;;22.10;45.40;;;;;;5074139;28;19991;-61
2022/05/15 00:21:03;;;;;;;;;;;22.00;45.40;;;;;;5073066;28;19916;-61
2022/05/15 00:23:29;;;;;;;;;;;22.10;45.40;;;;;;5074093;28;19913;-61
2022/05/15 00:25:54;;;;;;;;;;;22.10;45.40;;;;;;5074371;28;19908;-62
2022/05/15 00:28:20;;;;;;;;;;;22.00;45.40;;;;;;5056146;28;20281;-61
2022/05/15 00:30:45;;;;;;;;;;;22.00;45.40;;;;;;5073776;28;19913;-62
2022/05/15 00:33:11;;;;;;;;;;;22.00;45.40;;;;;;5073862;28;20439;-61
2022/05/15 00:35:37;;;;;;;;;;;22.00;45.40;;;;;;5073805;28;20383;-61
2022/05/15 00:38:03;;;;;;;;;;;22.00;45.40;;;;;;5072288;28;20326;-61
2022/05/15 00:40:28;;;;;;;;;;;22.00;45.50;;;;;;5073864;28;20007;-61
2022/05/15 00:42:54;;;;;;;;;;;22.00;45.40;;;;;;5073783;28;20448;-61
2022/05/15 00:45:20;;;;;;;;;;;22.00;45.40;;;;;;5072148;28;20003;-61
2022/05/15 00:47:46;;;;;;;;;;;22.00;45.40;;;;;;5073672;28;20383;-61
2022/05/15 00:50:14;;;;;;;;;;;22.00;45.40;;;;;;5073619;28;19912;-61
2022/05/15 00:52:41;;;;;;;;;;;22.00;45.50;;;;;;5072362;28;19912;-62
2022/05/15 00:55:07;;;;;;;;;;;22.00;45.50;;;;;;5073493;28;19916;-61
2022/05/15 00:57:35;;;;;;;;;;;22.00;45.50;;;;;;5073486;28;20280;-61
2022/05/15 01:00:05;;;;;;;;;;;21.90;45.50;;;;;;5073790;28;19935;-61
2022/05/15 01:02:46;;;;;;;;;;;21.90;45.60;;;;;;5073371;28;20364;-61
2022/05/15 01:05:12;;;;;;;;;;;21.90;45.60;;;;;;5073374;28;19908;-61
2022/05/15 01:07:38;;;;;;;;;;;21.90;45.60;;;;;;5071646;28;19909;-61
2022/05/15 01:10:03;;;;;;;;;;;21.90;45.70;;;;;;5054922;28;19965;-61
2022/05/15 01:12:29;;;;;;;;;;;21.90;45.70;;;;;;5073215;28;20295;-61
2022/05/15 01:14:54;;;;;;;;;;;21.90;45.60;;;;;;5071926;28;20271;-62
2022/05/15 01:17:20;;;;;;;;;;;21.90;45.70;;;;;;5073323;28;19932;-61
2022/05/15 01:19:45;;;;;;;;;;;21.80;45.50;;;;;;5073090;28;19947;-61
2022/05/15 01:22:11;;;;;;;;;;;21.80;45.60;;;;;;5073161;28;19908;-61
2022/05/15 01:24:37;;;;;;;;;;;21.80;45.70;;;;;;5073071;28;19958;-60
2022/05/15 01:27:08;;;;;;;;;;;21.80;45.70;;;;;;5071987;28;19916;-61
2022/05/15 01:29:34;;;;;;;;;;;21.80;45.80;;;;;;5073012;28;19912;-61
2022/05/15 01:32:00;;;;;;;;;;;21.80;45.80;;;;;;5071885;28;20296;-61
2022/05/15 01:34:25;;;;;;;;;;;21.80;45.70;;;;;;5073092;28;19915;-61
2022/05/15 01:36:52;;;;;;;;;;;21.80;45.80;;;;;;5071774;28;20006;-62
2022/05/15 01:39:17;;;;;;;;;;;21.80;45.80;;;;;;5072536;28;19915;-61
2022/05/15 01:41:43;;;;;;;;;;;21.80;45.80;;;;;;5071763;28;19908;-61
2022/05/15 01:44:08;;;;;;;;;;;21.80;45.80;;;;;;5072736;28;19959;-61
2022/05/15 01:46:34;;;;;;;;;;;21.80;45.70;;;;;;5073034;28;19909;-61
2022/05/15 01:49:00;;;;;;;;;;;21.80;45.80;;;;;;5071618;28;20435;-61
2022/05/15 01:51:25;;;;;;;;;;;21.70;45.80;;;;;;5071647;28;20001;-61
2022/05/15 01:53:51;;;;;;;;;;;21.80;45.90;;;;;;5072826;28;19909;-61
2022/05/15 01:56:17;;;;;;;;;;;21.70;45.80;;;;;;5071592;28;19951;-61
2022/05/15 01:58:42;;;;;;;;;;;21.70;45.80;;;;;;5071592;28;19916;-61
2022/05/15 02:01:07;;;;;;;;;;;21.70;45.80;;;;;;5072812;28;19931;-61
2022/05/15 02:03:34;;;;;;;;;;;21.70;45.80;;;;;;5072685;28;19909;-61
2022/05/15 02:05:59;;;;;;;;;;;21.70;45.80;;;;;;5071417;28;20395;-62
2022/05/15 02:08:25;;;;;;;;;;;21.70;45.80;;;;;;5072646;28;19908;-61
2022/05/15 02:10:50;;;;;;;;;;;21.60;45.70;;;;;;5072471;28;20007;-61
2022/05/15 02:13:16;;;;;;;;;;;21.60;45.70;;;;;;5072671;28;19908;-61
2022/05/15 02:15:41;;;;;;;;;;;21.70;45.80;;;;;;5072565;28;19944;-61
2022/05/15 02:18:07;;;;;;;;;;;21.60;46.40;;;;;;5072650;28;19934;-61
2022/05/15 02:20:32;;;;;;;;;;;21.70;45.80;;;;;;5072568;28;19909;-61
2022/05/15 02:22:58;;;;;;;;;;;21.60;45.70;;;;;;5075454;28;19919;-61
2022/05/15 02:25:23;;;;;;;;;;;21.60;45.80;;;;;;5076455;28;19915;-61
2022/05/15 02:27:49;;;;;;;;;;;21.60;45.70;;;;;;5076374;28;20050;-61
2022/05/15 02:30:14;;;;;;;;;;;21.60;45.70;;;;;;5076329;28;19919;-61
2022/05/15 02:32:40;;;;;;;;;;;21.60;45.70;;;;;;5074874;28;19908;-61
2022/05/15 02:35:06;;;;;;;;;;;21.60;45.70;;;;;;5076257;28;19909;-61
2022/05/15 02:37:31;;;;;;;;;;;21.60;45.70;;;;;;5076060;28;19912;-61
2022/05/15 02:39:56;;;;;;;;;;;21.50;45.70;;;;;;5075633;28;20482;-62
2022/05/15 02:42:22;;;;;;;;;;;21.50;45.80;;;;;;5076028;28;19908;-61
2022/05/15 02:44:47;;;;;;;;;;;21.50;45.80;;;;;;5075784;28;19928;-61
2022/05/15 02:47:13;;;;;;;;;;;21.50;45.70;;;;;;5074776;28;19909;-61
2022/05/15 02:52:22;;;;;;;;;;;21.40;45.90;;;;;;5074854;28;19916;-62
2022/05/15 02:54:48;;;;;;;;;;;21.40;45.90;;;;;;5074471;28;19912;-61
2022/05/15 02:57:13;;;;;;;;;;;21.50;45.90;;;;;;5074599;28;19909;-61
2022/05/15 02:59:39;;;;;;;;;;;21.50;45.90;;;;;;5074564;28;19958;-61
2022/05/15 03:02:04;;;;;;;;;;;21.40;45.80;;;;;;5075708;28;19909;-61
2022/05/15 03:04:31;;;;;;;;;;;21.50;46.00;;;;;;5075811;28;20003;-61
2022/05/15 03:06:57;;;;;;;;;;;21.40;45.90;;;;;;5075581;28;20252;-61
2022/05/15 03:09:22;;;;;;;;;;;21.50;46.00;;;;;;5075077;28;19919;-61
2022/05/15 03:11:47;;;;;;;;;;;21.40;45.90;;;;;;5075497;28;19909;-61
2022/05/15 03:14:13;;;;;;;;;;;21.40;45.90;;;;;;5075458;28;19909;-61
2022/05/15 03:16:38;;;;;;;;;;;21.40;46.00;;;;;;5074282;28;19917;-62
2022/05/15 03:19:04;;;;;;;;;;;21.40;46.00;;;;;;5075446;28;19908;-61
2022/05/15 03:21:29;;;;;;;;;;;21.40;46.00;;;;;;5075330;28;20007;-61
2022/05/15 03:23:56;;;;;;;;;;;21.40;46.00;;;;;;5073972;28;20265;-61
2022/05/15 03:26:21;;;;;;;;;;;21.40;46.00;;;;;;5075529;28;19915;-61
2022/05/15 03:28:47;;;;;;;;;;;21.40;45.90;;;;;;5074151;28;20408;-62
2022/05/15 03:31:12;;;;;;;;;;;21.40;45.90;;;;;;5057159;28;20352;-61
2022/05/15 03:33:38;;;;;;;;;;;21.30;45.90;;;;;;5074821;28;20269;-61
2022/05/15 03:36:10;;;;;;;;;;;21.30;45.90;;;;;;5075116;28;20288;-61
2022/05/15 03:38:36;;;;;;;;;;;21.40;46.00;;;;;;5073377;28;20369;-61
2022/05/15 03:41:01;;;;;;;;;;;21.30;46.00;;;;;;5073855;28;19916;-61
2022/05/15 03:43:27;;;;;;;;;;;21.30;46.00;;;;;;5073619;28;19909;-61
2022/05/15 03:45:52;;;;;;;;;;;21.30;46.10;;;;;;5073480;28;19928;-61
2022/05/15 03:48:18;;;;;;;;;;;21.30;46.00;;;;;;5074832;28;19915;-61
2022/05/15 03:50:43;;;;;;;;;;;21.30;46.00;;;;;;5074761;28;19942;-61
2022/05/15 03:53:08;;;;;;;;;;;21.30;46.00;;;;;;5074713;28;19917;-62
2022/05/15 03:55:34;;;;;;;;;;;21.30;46.00;;;;;;5074717;28;20034;-61
2022/05/15 03:57:59;;;;;;;;;;;21.30;45.90;;;;;;5074674;28;19915;-61
2022/05/15 04:00:25;;;;;;;;;;;21.30;46.00;;;;;;5074580;28;20421;-61
2022/05/15 04:02:50;;;;;;;;;;;21.30;45.90;;;;;;5074767;28;20371;-61
2022/05/15 04:05:16;;;;;;;;;;;21.40;45.90;;;;;;5074523;28;20428;-61
2022/05/15 04:07:42;;;;;;;;;;;21.30;45.70;;;;;;5074120;28;19932;-61
2022/05/15 04:10:08;;;;;;;;;;;21.30;45.80;;;;;;5074239;28;19912;-61
2022/05/15 04:12:33;;;;;;;;;;;21.40;45.90;;;;;;5074242;28;19908;-61
2022/05/15 04:14:59;;;;;;;;;;;21.30;45.80;;;;;;5072993;28;20478;-61
2022/05/15 04:17:26;;;;;;;;;;;21.30;45.80;;;;;;5074278;28;20280;-62
2022/05/15 04:19:51;;;;;;;;;;;21.40;45.80;;;;;;5074188;28;19912;-61
2022/05/15 04:22:17;;;;;;;;;;;21.30;45.60;;;;;;5072893;28;19915;-61
2022/05/15 04:24:42;;;;;;;;;;;21.40;45.70;;;;;;5072737;28;20417;-61
2022/05/15 04:27:08;;;;;;;;;;;21.30;45.70;;;;;;5074093;28;20287;-61
2022/05/15 04:29:33;;;;;;;;;;;21.30;45.80;;;;;;5073871;28;20011;-61
2022/05/15 04:31:58;;;;;;;;;;;21.30;45.70;;;;;;5072754;28;19912;-61
2022/05/15 04:34:24;;;;;;;;;;;21.40;45.70;;;;;;5074154;28;19908;-60
2022/05/15 04:36:50;;;;;;;;;;;21.30;45.60;;;;;;5074012;28;19952;-61
2022/05/15 04:39:15;;;;;;;;;;;21.40;45.70;;;;;;5073351;28;19912;-61
2022/05/15 04:41:41;;;;;;;;;;;21.40;45.60;;;;;;5073703;28;19915;-61
2022/05/15 04:44:06;;;;;;;;;;;21.40;45.60;;;;;;5072978;28;19916;-61
2022/05/15 04:46:32;;;;;;;;;;;21.40;45.60;;;;;;5073727;28;19908;-61
2022/05/15 04:48:58;;;;;;;;;;;21.40;45.60;;;;;;5073616;28;19913;-61
2022/05/15 04:51:23;;;;;;;;;;;21.40;45.60;;;;;;5073703;28;19915;-61
2022/05/15 04:53:49;;;;;;;;;;;21.40;45.60;;;;;;5072254;28;19994;-61
2022/05/15 04:56:14;;;;;;;;;;;21.30;45.60;;;;;;5073633;28;20360;-61
2022/05/15 04:58:39;;;;;;;;;;;21.40;45.60;;;;;;5073813;28;19954;-61
2022/05/15 05:01:05;;;;;;;;;;;21.40;45.60;;;;;;5073520;28;19999;-61
2022/05/15 05:03:30;;;;;;;;;;;21.40;45.70;;;;;;5073493;28;19908;-61
2022/05/15 05:05:56;;;;;;;;;;;21.30;45.60;;;;;;5073500;28;19958;-61
2022/05/15 05:08:21;;;;;;;;;;;21.40;45.60;;;;;;5072908;28;19909;-61
2022/05/15 05:10:47;;;;;;;;;;;21.40;45.60;;;;;;5073239;28;19912;-61
2022/05/15 05:13:13;;;;;;;;;;;21.40;45.60;;;;;;5073154;28;19908;-61
2022/05/15 05:15:39;;;;;;;;;;;21.40;45.60;;;;;;5073353;28;20411;-61
2022/05/15 05:18:04;;;;;;;;;;;21.40;45.60;;;;;;5073338;28;19995;-61
2022/05/15 05:20:30;;;;;;;;;;;21.40;45.60;;;;;;5073181;28;20011;-60
2022/05/15 05:22:55;;;;;;;;;;;21.40;45.60;;;;;;5073106;28;19940;-61
2022/05/15 05:25:20;;;;;;;;;;;21.40;45.60;;;;;;5073134;28;19908;-61
2022/05/15 05:27:46;;;;;;;;;;;21.40;45.60;;;;;;5072984;28;19908;-61
2022/05/15 05:30:19;;;;;;;;;;;21.40;45.60;;;;;;5073112;28;19962;-61
2022/05/15 05:32:44;;;;;;;;;;;21.40;45.80;;;;;;5073102;28;19909;-61
2022/05/15 05:35:10;;;;;;;;;;;21.30;45.80;;;;;;5073070;28;20383;-61
2022/05/15 05:37:35;;;;;;;;;;;21.40;45.80;;;;;;5072691;28;20019;-61
2022/05/15 05:40:01;;;;;;;;;;;21.40;45.70;;;;;;5053061;28;19944;-61
2022/05/15 05:42:26;;;;;;;;;;;21.30;45.60;;;;;;5052897;28;19974;-61
2022/05/15 05:44:52;;;;;;;;;;;21.40;45.80;;;;;;5052682;28;19924;-61
2022/05/15 05:47:24;;;;;;;;;;;21.40;45.80;;;;;;5052762;28;19908;-61
2022/05/15 05:49:49;;;;;;;;;;;21.40;45.90;;;;;;5052792;28;20025;-61
2022/05/15 05:52:15;;;;;;;;;;;21.40;45.90;;;;;;5052803;28;19955;-61
2022/05/15 05:54:41;;;;;;;;;;;21.30;45.90;;;;;;5052735;28;19948;-62
2022/05/15 05:57:07;;;;;;;;;;;21.30;45.90;;;;;;5054588;28;19909;-61
2022/05/15 05:59:32;;;;;;;;;;;21.30;45.80;;;;;;5056820;28;19963;-61
2022/05/15 06:01:58;;;;;;;;;;;21.30;45.90;;;;;;5056822;28;19943;-61
2022/05/15 06:07:08;;;;;;;;;;;21.30;45.90;;;;;;5056783;28;19915;-61
2022/05/15 06:09:35;;;;;;;;;;;21.30;46.00;;;;;;5056935;28;19913;-61
2022/05/15 06:12:00;;;;;;;;;;;21.30;45.90;;;;;;5055343;28;19909;-61
2022/05/15 06:14:26;;;;;;;;;;;21.40;46.00;;;;;;5056625;28;19916;-61
2022/05/15 06:16:51;;;;;;;;;;;21.40;45.90;;;;;;5056558;28;19913;-61
2022/05/15 06:19:17;;;;;;;;;;;21.40;45.90;;;;;;5056541;28;19910;-61
2022/05/15 06:21:42;;;;;;;;;;;21.40;46.00;;;;;;5056496;28;19934;-61
2022/05/15 06:24:08;;;;;;;;;;;21.40;46.00;;;;;;5056415;28;19908;-61
2022/05/15 06:26:33;;;;;;;;;;;21.30;45.90;;;;;;5056643;28;19916;-62
2022/05/15 06:28:59;;;;;;;;;;;21.40;45.90;;;;;;5055099;28;20342;-61
2022/05/15 06:31:24;;;;;;;;;;;21.40;45.90;;;;;;5056319;28;19908;-61
2022/05/15 06:33:50;;;;;;;;;;;21.40;45.90;;;;;;5056482;28;19909;-61
2022/05/15 06:36:15;;;;;;;;;;;21.30;45.90;;;;;;5056526;28;19963;-61
2022/05/15 06:38:42;;;;;;;;;;;21.40;45.90;;;;;;5055253;28;19909;-61
2022/05/15 06:41:08;;;;;;;;;;;21.40;46.10;;;;;;5054955;28;19947;-61
2022/05/15 06:43:33;;;;;;;;;;;21.40;46.00;;;;;;5056032;28;19913;-61
2022/05/15 06:45:59;;;;;;;;;;;21.40;45.90;;;;;;5056086;28;19960;-61
2022/05/15 06:48:24;;;;;;;;;;;21.40;45.90;;;;;;5056047;28;20379;-61
2022/05/15 06:50:50;;;;;;;;;;;21.40;45.80;;;;;;5055830;28;20383;-62
2022/05/15 06:53:16;;;;;;;;;;;21.40;45.90;;;;;;5054673;28;19947;-62
2022/05/15 06:57:28;;;;;;;;;;;21.40;45.80;;;;;;5055830;28;20300;-61
2022/05/15 06:58:27;;;;;;;;;;;21.40;45.90;;;;;;5055842;28;19909;-61
2022/05/15 07:00:53;;;;;;;;;;;21.40;45.90;;;;;;5054478;28;19943;-61
2022/05/15 07:03:18;;;;;;;;;;;21.40;45.80;;;;;;5055723;28;20281;-61
2022/05/15 07:05:44;;;;;;;;;;;21.40;45.80;;;;;;5055705;28;19955;-61
2022/05/15 07:08:11;;;;;;;;;;;21.40;45.80;;;;;;5055229;28;19912;-61
2022/05/15 07:10:37;;;;;;;;;;;21.40;45.90;;;;;;5055519;28;19912;-61
2022/05/15 07:13:02;;;;;;;;;;;21.40;45.80;;;;;;5054245;28;20280;-61
2022/05/15 07:15:29;;;;;;;;;;;21.40;45.80;;;;;;5055726;28;19908;-61
2022/05/15 07:17:54;;;;;;;;;;;21.40;45.80;;;;;;5055433;28;19909;-61
2022/05/15 07:20:20;;;;;;;;;;;21.40;45.80;;;;;;5055415;28;20035;-61
2022/05/15 07:22:45;;;;;;;;;;;21.40;45.80;;;;;;5055374;28;20447;-61
2022/05/15 07:25:11;;;;;;;;;;;21.40;45.60;;;;;;5054191;28;19915;-61
2022/05/15 07:27:36;;;;;;;;;;;21.40;45.60;;;;;;5055359;28;20373;-61
2022/05/15 07:30:02;;;;;;;;;;;21.40;45.60;;;;;;5053895;28;20368;-61
2022/05/15 07:32:27;;;;;;;;;;;21.40;45.60;;;;;;5053942;28;20322;-61
2022/05/15 07:34:53;;;;;;;;;;;21.40;45.60;;;;;;5055044;28;19923;-61
2022/05/15 07:37:18;;;;;;;;;;;21.40;45.60;;;;;;5053917;28;20403;-61
2022/05/15 07:39:44;;;;;;;;;;;21.40;45.60;;;;;;5055298;28;19909;-61
2022/05/15 07:42:09;;;;;;;;;;;21.40;45.60;;;;;;5053837;28;20006;-61
2022/05/15 07:44:35;;;;;;;;;;;21.40;45.60;;;;;;5053527;28;19932;-61
2022/05/15 07:47:01;;;;;;;;;;;21.40;45.60;;;;;;5054928;28;19957;-61
2022/05/15 07:49:26;;;;;;;;;;;21.40;45.60;;;;;;5054797;28;19920;-61
2022/05/15 07:51:52;;;;;;;;;;;21.40;45.60;;;;;;5054831;28;19909;-61
2022/05/15 07:54:17;;;;;;;;;;;21.40;45.60;;;;;;5054922;28;19992;-62
2022/05/15 07:56:43;;;;;;;;;;;21.40;45.60;;;;;;5053522;28;19932;-61
2022/05/15 07:59:08;;;;;;;;;;;21.40;45.60;;;;;;5054639;28;19909;-61
2022/05/15 08:01:34;;;;;;;;;;;21.50;45.70;;;;;;5054588;28;19909;-61
2022/05/15 08:03:59;;;;;;;;;;;21.50;45.70;;;;;;5054828;28;20099;-61
2022/05/15 08:09:09;;;;;;;;;;;21.50;45.70;;;;;;5054755;28;20015;-61
2022/05/15 08:11:36;;;;;;;;;;;21.50;45.70;;;;;;5054312;28;19909;-61
2022/05/15 08:14:02;;;;;;;;;;;21.50;45.70;;;;;;5053163;28;19909;-61
2022/05/15 08:16:27;;;;;;;;;;;21.50;45.70;;;;;;5054390;28;19916;-61
2022/05/15 08:24:22;;;;;;;;;;;21.50;45.60;;;;;;5053226;28;20000;-61
2022/05/15 08:26:48;;;;;;;;;;;21.50;45.60;;;;;;5054360;28;19908;-61
2022/05/15 08:29:13;;;;;;;;;;;21.60;45.40;;;;;;5054134;28;20389;-61
2022/05/15 08:31:39;;;;;;;;;;;21.60;45.50;;;;;;5053978;28;19916;-61
2022/05/15 08:34:07;;;;;;;;;;;21.60;45.50;;;;;;5052836;28;19962;-61
2022/05/15 08:36:32;;;;;;;;;;;21.60;45.70;;;;;;5053950;28;19915;-61
2022/05/15 08:38:58;;;;;;;;;;;21.50;45.70;;;;;;5053009;28;19999;-61
2022/05/15 08:41:42;;;;;;;;;;;21.50;45.70;;;;;;5053953;28;19908;-61
2022/05/15 08:44:14;;;;;;;;;;;21.50;45.70;;;;;;5053756;28;20257;-61
2022/05/15 08:46:49;;;;;;;;;;;21.50;45.80;;;;;;5052480;28;19920;-61
2022/05/15 08:49:26;;;;;;;;;;;21.50;45.80;;;;;;5053622;28;20007;-61
2022/05/15 08:51:56;;;;;;;;;;;21.40;45.80;;;;;;5053625;28;19916;-61
2022/05/15 08:54:21;;;;;;;;;;;21.40;46.10;;;;;;5052494;28;20324;-61
2022/05/15 08:56:47;;;;;;;;;;;21.40;46.10;;;;;;5053597;28;19916;-62
2022/05/15 08:59:18;;;;;;;;;;;21.40;46.10;;;;;;5052479;28;20384;-62
2022/05/15 09:01:44;;;;;;;;;;;21.40;46.10;;;;;;5053524;28;20003;-61
2022/05/15 09:04:09;;;;;;;;;;;21.30;46.30;;;;;;5053315;28;20432;-62
2022/05/15 09:06:38;;;;;;;;;;;21.30;46.30;;;;;;5053442;28;19909;-62
2022/05/15 09:09:22;;;;;;;;;;;21.30;46.30;;;;;;5053635;28;19959;-61
2022/05/15 09:12:10;;;;;;;;;;;21.40;46.30;;;;;;5053237;28;19909;-61
2022/05/15 09:14:40;;;;;;;;;;;21.40;46.30;;;;;;5053104;28;19909;-61
2022/05/15 09:17:15;;;;;;;;;;;21.40;46.30;;;;;;5053265;28;20285;-61
2022/05/15 09:19:40;;;;;;;;;;;21.40;46.40;;;;;;5053214;28;20288;-61
2022/05/15 09:22:05;;;;;;;;;;;21.40;46.60;;;;;;5051910;28;19995;-61
2022/05/15 09:24:33;;;;;;;;;;;21.40;46.60;;;;;;5051907;28;19974;-61
2022/05/15 09:27:12;;;;;;;;;;;21.30;46.50;;;;;;5053183;28;19909;-61
2022/05/15 09:29:38;;;;;;;;;;;21.30;46.70;;;;;;5051782;28;19920;-61
2022/05/15 09:32:06;;;;;;;;;;;21.40;46.70;;;;;;5051629;28;19913;-61
2022/05/15 09:34:35;;;;;;;;;;;21.40;46.70;;;;;;5053005;28;19912;-61
2022/05/15 09:39:48;;;;;;;;;;;21.40;46.80;;;;;;5053249;28;20395;-61
2022/05/15 09:44:59;;;;;;;;;;;21.40;46.90;;;;;;5055752;28;19974;-61
2022/05/15 09:47:31;;;;;;;;;;;21.30;46.80;;;;;;5052930;28;19908;-61
2022/05/15 09:49:56;;;;;;;;;;;21.40;46.90;;;;;;5052772;28;19913;-61
2022/05/15 09:52:22;;;;;;;;;;;21.40;46.80;;;;;;5052883;28;19963;-61
2022/05/15 09:54:48;;;;;;;;;;;21.40;46.90;;;;;;5052873;28;19976;-61
2022/05/15 09:57:15;;;;;;;;;;;21.40;46.80;;;;;;5034878;28;19987;-62
2022/05/15 09:59:41;;;;;;;;;;;21.40;47.00;;;;;;5052752;28;19913;-61
2022/05/15 10:02:07;;;;;;;;;;;21.40;46.70;;;;;;5051647;28;19995;-61
2022/05/15 10:04:37;;;;;;;;;;;21.40;47.00;;;;;;5051468;28;19916;-61
2022/05/15 10:07:04;;;;;;;;;;;21.40;47.10;;;;;;5051532;28;20348;-61
2022/05/15 10:09:33;;;;;;;;;;;21.40;46.90;;;;;;5051659;28;20011;-61
2022/05/15 10:12:04;;;;;;;;;;;21.40;47.10;;;;;;5051507;28;19916;-61
2022/05/15 10:14:32;;;;;;;;;;;21.40;47.10;;;;;;5051412;28;20377;-61
2022/05/15 10:16:57;;;;;;;;;;;21.40;47.10;;;;;;5051433;28;19909;-61
2022/05/15 10:19:34;;;;;;;;;;;21.40;47.10;;;;;;5051396;28;19915;-62
2022/05/15 10:22:06;;;;;;;;;;;21.50;47.00;;;;;;5034685;28;19995;-62
2022/05/15 10:24:33;;;;;;;;;;;21.50;46.90;;;;;;5052669;28;19913;-61
2022/05/15 10:27:04;;;;;;;;;;;21.50;46.90;;;;;;5051346;28;19916;-61
2022/05/15 10:29:39;;;;;;;;;;;21.50;47.00;;;;;;5034656;28;19940;-62
2022/05/15 10:32:34;;;;;;;;;;;21.50;47.00;;;;;;5052437;28;19936;-61
2022/05/15 10:34:59;;;;;;;;;;;21.50;46.90;;;;;;5043417;28;19913;-61
2022/05/15 10:37:31;;;;;;;;;;;21.50;46.80;;;;;;5051270;28;20360;-62
2022/05/15 10:39:56;;;;;;;;;;;21.60;46.70;;;;;;5052711;28;19916;-61
2022/05/15 10:42:30;;;;;;;;;;;21.70;46.80;;;;;;5052728;28;19909;-61
2022/05/15 10:44:56;;;;;;;;;;;21.70;46.80;;;;;;5055894;28;20296;-61
2022/05/15 10:47:27;;;;;;;;;;;21.70;47.20;;;;;;5056049;28;19908;-62
2022/05/15 10:50:14;;;;;;;;;;;21.70;46.50;;;;;;5038010;28;19912;-62
2022/05/15 10:52:59;;;;;;;;;;;21.70;46.40;;;;;;5055878;28;20502;-62
2022/05/15 10:58:32;;;;;;;;;;;21.80;46.30;;;;;;5054739;28;20335;-61
2022/05/15 11:01:01;;;;;;;;;;;21.80;46.50;;;;;;5055687;28;19913;-62
2022/05/15 11:03:26;;;;;;;;;;;21.80;46.60;;;;;;5054614;28;20288;-61
2022/05/15 11:05:52;;;;;;;;;;;21.80;46.60;;;;;;5054393;28;19995;-62
2022/05/15 11:08:29;;;;;;;;;;;21.80;46.40;;;;;;5056207;28;19908;-61
2022/05/15 11:10:59;;;;;;;;;;;21.80;46.50;;;;;;5055501;28;20007;-62
2022/05/15 11:13:28;;;;;;;;;;;21.90;46.70;;;;;;5054353;28;20003;-61
2022/05/15 11:15:59;;;;;;;;;;;21.90;46.60;;;;;;5054556;28;19920;-62
2022/05/15 11:18:46;;;;;;;;;;;21.90;46.50;;;;;;5055441;28;19909;-61
2022/05/15 11:21:13;;;;;;;;;;;21.90;46.50;;;;;;5054415;28;19908;-62
2022/05/15 11:23:43;;;;;;;;;;;21.90;46.20;;;;;;5037425;28;19913;-61
2022/05/15 11:26:13;;;;;;;;;;;22.00;46.40;;;;;;5054163;28;20393;-61
2022/05/15 11:28:42;;;;;;;;;;;22.00;46.60;;;;;;5054018;28;19954;-62
2022/05/15 11:31:09;;;;;;;;;;;22.00;46.50;;;;;;5054099;28;19912;-62
2022/05/15 11:33:44;;;;;;;;;;;22.00;46.70;;;;;;5054169;28;19919;-62
2022/05/15 11:36:10;;;;;;;;;;;22.00;46.70;;;;;;5053854;28;19916;-61
2022/05/15 11:38:46;;;;;;;;;;;22.00;46.80;;;;;;5055277;28;20364;-61
2022/05/15 11:41:36;;;;;;;;;;;22.00;46.80;;;;;;5055357;28;19998;-61
2022/05/15 11:44:12;;;;;;;;;;;22.00;46.90;;;;;;5054991;28;19917;-62
2022/05/15 11:46:47;;;;;;;;;;;22.00;46.90;;;;;;5053678;28;20289;-61
2022/05/15 11:49:13;;;;;;;;;;;22.10;46.90;;;;;;5053539;28;19913;-61
2022/05/15 11:51:38;;;;;;;;;;;22.10;46.90;;;;;;5054805;28;19916;-62
2022/05/15 11:54:05;;;;;;;;;;;22.10;46.80;;;;;;5054726;28;20068;-61
2022/05/15 11:56:34;;;;;;;;;;;22.10;46.70;;;;;;5053501;28;19958;-62
2022/05/15 11:59:04;;;;;;;;;;;22.10;46.70;;;;;;5054650;28;19916;-61
2022/05/15 12:01:33;;;;;;;;;;;22.10;46.80;;;;;;5054755;28;19913;-61
2022/05/15 12:03:59;;;;;;;;;;;22.10;46.80;;;;;;5054711;28;19916;-61
2022/05/15 12:06:28;;;;;;;;;;;22.20;46.50;;;;;;5054539;28;19915;-62
2022/05/15 12:09:13;;;;;;;;;;;22.20;46.30;;;;;;5053725;28;19909;-62
2022/05/15 12:11:38;;;;;;;;;;;22.30;46.50;;;;;;5054448;28;19908;-62
2022/05/15 12:14:25;;;;;;;;;;;22.30;46.80;;;;;;5054375;28;20423;-62
2022/05/15 12:17:04;;;;;;;;;;;22.30;46.80;;;;;;5054494;28;20391;-61
2022/05/15 12:19:29;;;;;;;;;;;22.30;46.50;;;;;;5054345;28;19912;-61
2022/05/15 12:21:56;;;;;;;;;;;22.30;46.10;;;;;;5052928;28;19909;-61
2022/05/15 12:24:27;;;;;;;;;;;22.40;46.20;;;;;;5053022;28;20277;-61
2022/05/15 12:27:01;;;;;;;;;;;22.50;46.50;;;;;;5053134;28;19909;-61
2022/05/15 12:29:32;;;;;;;;;;;22.50;45.80;;;;;;5052895;28;19920;-61
2022/05/15 12:31:58;;;;;;;;;;;22.50;46.00;;;;;;5054096;28;19916;-62
2022/05/15 12:34:25;;;;;;;;;;;22.60;45.80;;;;;;5052841;28;19909;-62
2022/05/15 12:36:55;;;;;;;;;;;22.50;45.60;;;;;;5052757;28;19936;-62
2022/05/15 12:39:25;;;;;;;;;;;22.60;45.60;;;;;;5053009;28;19913;-62
2022/05/15 12:41:50;;;;;;;;;;;22.60;45.50;;;;;;5053936;28;20434;-61
2022/05/15 12:44:26;;;;;;;;;;;22.60;45.30;;;;;;5053628;28;19917;-62
2022/05/15 12:46:55;;;;;;;;;;;22.60;45.50;;;;;;5052648;28;19958;-62
2022/05/15 12:49:28;;;;;;;;;;;22.70;45.30;;;;;;5052465;28;19960;-61
2022/05/15 12:51:53;;;;;;;;;;;22.70;45.40;;;;;;5052320;28;20003;-62
2022/05/15 12:54:21;;;;;;;;;;;22.70;46.10;;;;;;5053259;28;21572;-61
2022/05/15 12:56:56;;;;;;;;;;;22.70;46.40;;;;;;5053660;28;19956;-62
2022/05/15 12:59:21;;;;;;;;;;;22.70;46.40;;;;;;5058992;28;20327;-62
2022/05/15 13:01:47;;;;;;;;;;;22.60;46.50;;;;;;5052514;28;19909;-61
2022/05/15 13:04:16;;;;;;;;;;;22.60;46.30;;;;;;5052533;28;19909;-62
2022/05/15 13:06:47;;;;;;;;;;;22.70;45.80;;;;;;5051707;28;19929;-62
2022/05/15 13:09:18;;;;;;;;;;;22.80;46.10;;;;;;5052802;28;19916;-62
2022/05/15 13:11:45;;;;;;;;;;;22.80;45.60;;;;;;5052138;28;19924;-61
2022/05/15 13:14:12;;;;;;;;;;;22.80;45.50;;;;;;5052160;28;20011;-61
2022/05/15 13:16:39;;;;;;;;;;;22.90;45.50;;;;;;5052179;28;19909;-62
2022/05/15 13:19:04;;;;;;;;;;;23.00;45.30;;;;;;5053355;28;19954;-61
2022/05/15 13:21:34;;;;;;;;;;;23.00;45.00;;;;;;5052016;28;20003;-61
2022/05/15 13:23:59;;;;;;;;;;;23.10;44.80;;;;;;5053182;28;20400;-62
2022/05/15 13:26:30;;;;;;;;;;;23.10;44.80;;;;;;5051981;28;19916;-61
2022/05/15 13:28:57;;;;;;;;;;;23.20;44.80;;;;;;5053135;28;19925;-62
2022/05/15 13:31:23;;;;;;;;;;;23.20;44.80;;;;;;5051886;28;20388;-62
2022/05/15 13:33:53;;;;;;;;;;;23.20;45.00;;;;;;5051821;28;19909;-62
2022/05/15 13:36:18;;;;;;;;;;;23.20;45.10;;;;;;5052040;28;20256;-62
2022/05/15 13:44:14;;;;;;;;;;;23.30;45.20;;;;;;5051927;28;20077;-61
2022/05/15 13:46:43;;;;;;;;;;;23.30;45.10;;;;;;5051931;28;20003;-61
2022/05/15 13:49:11;;;;;;;;;;;23.30;45.20;;;;;;5051717;28;19931;-62
2022/05/15 13:51:36;;;;;;;;;;;23.30;45.30;;;;;;5053073;28;19909;-61
2022/05/15 13:54:04;;;;;;;;;;;23.30;45.30;;;;;;5052875;28;19909;-62
2022/05/15 13:56:30;;;;;;;;;;;23.30;45.30;;;;;;5052902;28;19920;-62
2022/05/15 13:58:55;;;;;;;;;;;23.30;45.30;;;;;;5051441;28;19909;-61
2022/05/15 14:01:28;;;;;;;;;;;23.40;45.40;;;;;;5052792;28;19935;-63
2022/05/15 14:03:54;;;;;;;;;;;23.40;45.10;;;;;;5051446;28;19909;-62
2022/05/15 14:06:21;;;;;;;;;;;23.40;45.10;;;;;;5052750;28;19909;-62
2022/05/15 14:09:05;;;;;;;;;;;23.40;44.60;;;;;;5035102;28;19909;-62
2022/05/15 14:11:47;;;;;;;;;;;23.50;44.60;;;;;;5052840;28;19999;-62
2022/05/15 14:14:12;;;;;;;;;;;23.50;44.70;;;;;;5051422;28;20330;-61
2022/05/15 14:16:38;;;;;;;;;;;23.50;44.90;;;;;;5052586;28;19909;-62
2022/05/15 14:19:13;;;;;;;;;;;23.50;45.10;;;;;;5055874;28;20432;-61
2022/05/15 14:21:53;;;;;;;;;;;23.50;45.20;;;;;;5056520;28;19909;-61
2022/05/15 14:24:19;;;;;;;;;;;23.50;45.40;;;;;;5056618;28;19940;-61
2022/05/15 14:26:45;;;;;;;;;;;23.50;45.40;;;;;;5056483;28;19932;-62
2022/05/15 14:29:12;;;;;;;;;;;23.50;45.30;;;;;;5056265;28;19962;-61
2022/05/15 14:31:38;;;;;;;;;;;23.50;45.40;;;;;;5056391;28;19916;-61
2022/05/15 14:34:03;;;;;;;;;;;23.50;45.50;;;;;;5056472;28;19909;-61
2022/05/15 14:36:30;;;;;;;;;;;23.50;45.60;;;;;;5055066;28;19966;-61
2022/05/15 14:38:55;;;;;;;;;;;23.40;45.70;;;;;;5056653;28;19912;-61
2022/05/15 14:41:21;;;;;;;;;;;23.40;45.70;;;;;;5056168;28;20007;-61
2022/05/15 14:43:46;;;;;;;;;;;23.40;45.80;;;;;;5055899;28;20039;-62
2022/05/15 14:46:12;;;;;;;;;;;23.40;46.00;;;;;;5056104;28;19913;-62